Brora, United Kingdom
Current Conditions -  °F | °C
As of 10:50 AM on Monday 20 Oct 2014 (Local Time) from EGQK Reporting Station
Broken Clouds Broken Clouds  
Wind Chill: 12°   Ceiling: 4000
Heat Index: 12°   Visibility: 6mi
Dew Point:   Wind: 10mph
Humidity: 77%   Direction: 220°SW
Pressure: 29.62"   Gusts: NA
Location:  58.01°N, 3.85°W
Report Text: EGQK 200950Z 22009KT 9999 BKN040 BKN070 12/08 Q1003 BLU
Loading
Personal Weather Stations






























Interactive Weather Map
Tropical Storm Tracking
New forecast layout! Learn more

10-Day Weather Forecast

Advertisements
Track Severe Weather on mobile